<?xml version="1.0" encoding="UTF-8" standalone="no" ?>
<gpx xmlns="http://www.topografix.com/GPX/1/1" xmlns:xsi="http://www.w3.org/2001/XMLSchema-instance" xsi:schemaLocation="http://www.topografix.com/GPX/1/1 http://www.topografix.com/GPX/1/1/gpx.xsd" version="1.1" creator="VisuGPX - https://www.visugpx.com">
  <metadata>
    <name>les 3 chateaux ferrieres</name>
    <desc><![CDATA[chemin balisé, mais raccourci.]]></desc>
  </metadata>
  <trk>
    <name><![CDATA[10140751-les 3 chateaux ferrieres]]></name>
    <trkseg>
      <trkpt lat="46.03075" lon="3.65">
        <ele>605</ele>
        <time>2021-11-10T05:33:19Z</time>
      </trkpt>
      <trkpt lat="46.0313" lon="3.64909">
        <ele>608</ele>
        <time>2021-11-10T05:35:11Z</time>
      </trkpt>
      <trkpt lat="46.03177" lon="3.64918">
        <ele>614</ele>
        <time>2021-11-10T05:36:14Z</time>
      </trkpt>
      <trkpt lat="46.03267" lon="3.64986">
        <ele>636</ele>
        <time>2021-11-10T05:38:30Z</time>
      </trkpt>
      <trkpt lat="46.03308" lon="3.65038">
        <ele>640</ele>
        <time>2021-11-10T05:39:43Z</time>
      </trkpt>
      <trkpt lat="46.03339" lon="3.65144">
        <ele>640</ele>
        <time>2021-11-10T05:41:29Z</time>
      </trkpt>
      <trkpt lat="46.03415" lon="3.65223">
        <ele>629</ele>
        <time>2021-11-10T05:43:34Z</time>
      </trkpt>
      <trkpt lat="46.03465" lon="3.65337">
        <ele>615</ele>
        <time>2021-11-10T05:45:39Z</time>
      </trkpt>
      <trkpt lat="46.0349" lon="3.65411">
        <ele>611</ele>
        <time>2021-11-10T05:46:55Z</time>
      </trkpt>
      <trkpt lat="46.03515" lon="3.65447">
        <ele>609</ele>
        <time>2021-11-10T05:47:43Z</time>
      </trkpt>
      <trkpt lat="46.03548" lon="3.65455">
        <ele>606</ele>
        <time>2021-11-10T05:48:27Z</time>
      </trkpt>
      <trkpt lat="46.03656" lon="3.65421">
        <ele>597</ele>
        <time>2021-11-10T05:50:55Z</time>
      </trkpt>
      <trkpt lat="46.03725" lon="3.65441">
        <ele>599</ele>
        <time>2021-11-10T05:52:29Z</time>
      </trkpt>
      <trkpt lat="46.03732" lon="3.65494">
        <ele>601</ele>
        <time>2021-11-10T05:53:19Z</time>
      </trkpt>
      <trkpt lat="46.03734" lon="3.65574">
        <ele>605</ele>
        <time>2021-11-10T05:54:33Z</time>
      </trkpt>
      <trkpt lat="46.03783" lon="3.65648">
        <ele>606</ele>
        <time>2021-11-10T05:56:08Z</time>
      </trkpt>
      <trkpt lat="46.0383" lon="3.65692">
        <ele>607</ele>
        <time>2021-11-10T05:57:22Z</time>
      </trkpt>
      <trkpt lat="46.0391" lon="3.65707">
        <ele>615</ele>
        <time>2021-11-10T05:59:10Z</time>
      </trkpt>
      <trkpt lat="46.03937" lon="3.65647">
        <ele>614</ele>
        <time>2021-11-10T06:00:16Z</time>
      </trkpt>
      <trkpt lat="46.04002" lon="3.65673">
        <ele>615</ele>
        <time>2021-11-10T06:01:46Z</time>
      </trkpt>
      <trkpt lat="46.04083" lon="3.65679">
        <ele>616</ele>
        <time>2021-11-10T06:03:34Z</time>
      </trkpt>
      <trkpt lat="46.0415" lon="3.65528">
        <ele>616</ele>
        <time>2021-11-10T06:06:20Z</time>
      </trkpt>
      <trkpt lat="46.04186" lon="3.65396">
        <ele>615</ele>
        <time>2021-11-10T06:08:32Z</time>
      </trkpt>
      <trkpt lat="46.04266" lon="3.65355">
        <ele>627</ele>
        <time>2021-11-10T06:10:25Z</time>
      </trkpt>
      <trkpt lat="46.04311" lon="3.65322">
        <ele>632</ele>
        <time>2021-11-10T06:11:33Z</time>
      </trkpt>
      <trkpt lat="46.04336" lon="3.6523">
        <ele>630</ele>
        <time>2021-11-10T06:13:04Z</time>
      </trkpt>
      <trkpt lat="46.0441" lon="3.65191">
        <ele>636</ele>
        <time>2021-11-10T06:14:49Z</time>
      </trkpt>
      <trkpt lat="46.04403" lon="3.65054">
        <ele>626</ele>
        <time>2021-11-10T06:16:56Z</time>
      </trkpt>
      <trkpt lat="46.0442" lon="3.65">
        <ele>623</ele>
        <time>2021-11-10T06:17:51Z</time>
      </trkpt>
      <trkpt lat="46.04405" lon="3.64854">
        <ele>607</ele>
        <time>2021-11-10T06:20:08Z</time>
      </trkpt>
      <trkpt lat="46.04441" lon="3.64617">
        <ele>600</ele>
        <time>2021-11-10T06:23:53Z</time>
      </trkpt>
      <trkpt lat="46.04445" lon="3.64541">
        <ele>601</ele>
        <time>2021-11-10T06:25:03Z</time>
      </trkpt>
      <trkpt lat="46.04385" lon="3.64419">
        <ele>610</ele>
        <time>2021-11-10T06:27:22Z</time>
      </trkpt>
      <trkpt lat="46.04372" lon="3.64392">
        <ele>611</ele>
        <time>2021-11-10T06:27:52Z</time>
      </trkpt>
      <trkpt lat="46.04336" lon="3.64331">
        <ele>614</ele>
        <time>2021-11-10T06:29:06Z</time>
      </trkpt>
      <trkpt lat="46.04383" lon="3.64236">
        <ele>618</ele>
        <time>2021-11-10T06:30:55Z</time>
      </trkpt>
      <trkpt lat="46.04386" lon="3.6418">
        <ele>619</ele>
        <time>2021-11-10T06:31:47Z</time>
      </trkpt>
      <trkpt lat="46.04376" lon="3.64101">
        <ele>619</ele>
        <time>2021-11-10T06:33:01Z</time>
      </trkpt>
      <trkpt lat="46.04383" lon="3.64033">
        <ele>620</ele>
        <time>2021-11-10T06:34:05Z</time>
      </trkpt>
      <trkpt lat="46.04422" lon="3.6398">
        <ele>623</ele>
        <time>2021-11-10T06:35:16Z</time>
      </trkpt>
      <trkpt lat="46.04451" lon="3.63931">
        <ele>623</ele>
        <time>2021-11-10T06:36:16Z</time>
      </trkpt>
      <trkpt lat="46.0447" lon="3.63791">
        <ele>622</ele>
        <time>2021-11-10T06:38:28Z</time>
      </trkpt>
      <trkpt lat="46.04496" lon="3.63715">
        <ele>625</ele>
        <time>2021-11-10T06:39:46Z</time>
      </trkpt>
      <trkpt lat="46.04499" lon="3.63651">
        <ele>626</ele>
        <time>2021-11-10T06:40:46Z</time>
      </trkpt>
      <trkpt lat="46.04479" lon="3.63567">
        <ele>621</ele>
        <time>2021-11-10T06:42:08Z</time>
      </trkpt>
      <trkpt lat="46.04467" lon="3.63293">
        <ele>605</ele>
        <time>2021-11-10T06:46:22Z</time>
      </trkpt>
      <trkpt lat="46.04445" lon="3.63208">
        <ele>602</ele>
        <time>2021-11-10T06:47:46Z</time>
      </trkpt>
      <trkpt lat="46.04359" lon="3.63133">
        <ele>600</ele>
        <time>2021-11-10T06:50:01Z</time>
      </trkpt>
      <trkpt lat="46.04266" lon="3.63097">
        <ele>599</ele>
        <time>2021-11-10T06:52:09Z</time>
      </trkpt>
      <trkpt lat="46.04197" lon="3.63094">
        <ele>599</ele>
        <time>2021-11-10T06:53:41Z</time>
      </trkpt>
      <trkpt lat="46.04205" lon="3.62954">
        <ele>591</ele>
        <time>2021-11-10T06:55:51Z</time>
      </trkpt>
      <trkpt lat="46.04106" lon="3.62894">
        <ele>589</ele>
        <time>2021-11-10T06:58:15Z</time>
      </trkpt>
      <trkpt lat="46.04005" lon="3.62912">
        <ele>585</ele>
        <time>2021-11-10T07:00:30Z</time>
      </trkpt>
      <trkpt lat="46.03949" lon="3.62911">
        <ele>581</ele>
        <time>2021-11-10T07:01:45Z</time>
      </trkpt>
      <trkpt lat="46.03888" lon="3.62851">
        <ele>572</ele>
        <time>2021-11-10T07:03:24Z</time>
      </trkpt>
      <trkpt lat="46.03853" lon="3.62746">
        <ele>562</ele>
        <time>2021-11-10T07:05:12Z</time>
      </trkpt>
      <trkpt lat="46.03803" lon="3.62651">
        <ele>547</ele>
        <time>2021-11-10T07:07:02Z</time>
      </trkpt>
      <trkpt lat="46.03742" lon="3.62614">
        <ele>542</ele>
        <time>2021-11-10T07:08:30Z</time>
      </trkpt>
      <trkpt lat="46.03636" lon="3.62634">
        <ele>533</ele>
        <time>2021-11-10T07:10:53Z</time>
      </trkpt>
      <trkpt lat="46.03593" lon="3.62672">
        <ele>532</ele>
        <time>2021-11-10T07:12:00Z</time>
      </trkpt>
      <trkpt lat="46.03542" lon="3.62693">
        <ele>534</ele>
        <time>2021-11-10T07:13:11Z</time>
      </trkpt>
      <trkpt lat="46.03506" lon="3.62687">
        <ele>536</ele>
        <time>2021-11-10T07:14:00Z</time>
      </trkpt>
      <trkpt lat="46.03504" lon="3.62608">
        <ele>539</ele>
        <time>2021-11-10T07:15:13Z</time>
      </trkpt>
      <trkpt lat="46.03523" lon="3.62539">
        <ele>542</ele>
        <time>2021-11-10T07:16:22Z</time>
      </trkpt>
      <trkpt lat="46.03535" lon="3.62472">
        <ele>546</ele>
        <time>2021-11-10T07:17:26Z</time>
      </trkpt>
      <trkpt lat="46.03552" lon="3.62405">
        <ele>549</ele>
        <time>2021-11-10T07:18:32Z</time>
      </trkpt>
      <trkpt lat="46.0363" lon="3.62357">
        <ele>542</ele>
        <time>2021-11-10T07:20:25Z</time>
      </trkpt>
      <trkpt lat="46.03702" lon="3.62369">
        <ele>542</ele>
        <time>2021-11-10T07:22:02Z</time>
      </trkpt>
      <trkpt lat="46.0378" lon="3.62387">
        <ele>549</ele>
        <time>2021-11-10T07:23:47Z</time>
      </trkpt>
      <trkpt lat="46.03837" lon="3.62338">
        <ele>559</ele>
        <time>2021-11-10T07:25:16Z</time>
      </trkpt>
      <trkpt lat="46.03843" lon="3.62293">
        <ele>555</ele>
        <time>2021-11-10T07:25:58Z</time>
      </trkpt>
      <trkpt lat="46.03763" lon="3.62344">
        <ele>549</ele>
        <time>2021-11-10T07:27:55Z</time>
      </trkpt>
      <trkpt lat="46.03717" lon="3.62326">
        <ele>543</ele>
        <time>2021-11-10T07:28:58Z</time>
      </trkpt>
      <trkpt lat="46.03609" lon="3.62338">
        <ele>544</ele>
        <time>2021-11-10T07:31:23Z</time>
      </trkpt>
      <trkpt lat="46.03558" lon="3.62372">
        <ele>549</ele>
        <time>2021-11-10T07:32:38Z</time>
      </trkpt>
      <trkpt lat="46.03443" lon="3.62385">
        <ele>564</ele>
        <time>2021-11-10T07:35:12Z</time>
      </trkpt>
      <trkpt lat="46.03327" lon="3.62401">
        <ele>572</ele>
        <time>2021-11-10T07:37:47Z</time>
      </trkpt>
      <trkpt lat="46.03242" lon="3.62459">
        <ele>581</ele>
        <time>2021-11-10T07:39:53Z</time>
      </trkpt>
      <trkpt lat="46.03194" lon="3.62423">
        <ele>585</ele>
        <time>2021-11-10T07:41:05Z</time>
      </trkpt>
      <trkpt lat="46.03115" lon="3.6234">
        <ele>591</ele>
        <time>2021-11-10T07:43:16Z</time>
      </trkpt>
      <trkpt lat="46.02931" lon="3.62178">
        <ele>601</ele>
        <time>2021-11-10T07:48:03Z</time>
      </trkpt>
      <trkpt lat="46.0291" lon="3.62077">
        <ele>599</ele>
        <time>2021-11-10T07:49:41Z</time>
      </trkpt>
      <trkpt lat="46.02891" lon="3.61898">
        <ele>598</ele>
        <time>2021-11-10T07:52:29Z</time>
      </trkpt>
      <trkpt lat="46.02849" lon="3.61835">
        <ele>597</ele>
        <time>2021-11-10T07:53:50Z</time>
      </trkpt>
      <trkpt lat="46.02791" lon="3.62004">
        <ele>601</ele>
        <time>2021-11-10T07:56:44Z</time>
      </trkpt>
      <trkpt lat="46.02762" lon="3.62159">
        <ele>609</ele>
        <time>2021-11-10T07:59:13Z</time>
      </trkpt>
      <trkpt lat="46.02712" lon="3.62314">
        <ele>620</ele>
        <time>2021-11-10T08:01:52Z</time>
      </trkpt>
      <trkpt lat="46.02707" lon="3.62358">
        <ele>623</ele>
        <time>2021-11-10T08:02:33Z</time>
      </trkpt>
      <trkpt lat="46.02682" lon="3.62499">
        <ele>634</ele>
        <time>2021-11-10T08:04:48Z</time>
      </trkpt>
      <trkpt lat="46.02675" lon="3.62604">
        <ele>638</ele>
        <time>2021-11-10T08:06:25Z</time>
      </trkpt>
      <trkpt lat="46.02691" lon="3.62715">
        <ele>643</ele>
        <time>2021-11-10T08:08:10Z</time>
      </trkpt>
      <trkpt lat="46.02712" lon="3.62848">
        <ele>645</ele>
        <time>2021-11-10T08:10:17Z</time>
      </trkpt>
      <trkpt lat="46.02731" lon="3.62937">
        <ele>643</ele>
        <time>2021-11-10T08:11:43Z</time>
      </trkpt>
      <trkpt lat="46.02777" lon="3.63012">
        <ele>642</ele>
        <time>2021-11-10T08:13:16Z</time>
      </trkpt>
      <trkpt lat="46.0283" lon="3.63111">
        <ele>648</ele>
        <time>2021-11-10T08:15:12Z</time>
      </trkpt>
      <trkpt lat="46.02873" lon="3.63227">
        <ele>647</ele>
        <time>2021-11-10T08:17:14Z</time>
      </trkpt>
      <trkpt lat="46.02911" lon="3.63329">
        <ele>650</ele>
        <time>2021-11-10T08:19:01Z</time>
      </trkpt>
      <trkpt lat="46.02941" lon="3.63437">
        <ele>653</ele>
        <time>2021-11-10T08:20:49Z</time>
      </trkpt>
      <trkpt lat="46.02967" lon="3.63536">
        <ele>652</ele>
        <time>2021-11-10T08:22:27Z</time>
      </trkpt>
      <trkpt lat="46.03021" lon="3.63637">
        <ele>648</ele>
        <time>2021-11-10T08:24:25Z</time>
      </trkpt>
      <trkpt lat="46.03046" lon="3.63744">
        <ele>646</ele>
        <time>2021-11-10T08:26:09Z</time>
      </trkpt>
      <trkpt lat="46.0306" lon="3.63812">
        <ele>647</ele>
        <time>2021-11-10T08:27:15Z</time>
      </trkpt>
      <trkpt lat="46.03066" lon="3.63936">
        <ele>643</ele>
        <time>2021-11-10T08:29:10Z</time>
      </trkpt>
      <trkpt lat="46.03068" lon="3.64005">
        <ele>638</ele>
        <time>2021-11-10T08:30:14Z</time>
      </trkpt>
      <trkpt lat="46.03089" lon="3.64066">
        <ele>632</ele>
        <time>2021-11-10T08:31:17Z</time>
      </trkpt>
      <trkpt lat="46.03096" lon="3.64105">
        <ele>628</ele>
        <time>2021-11-10T08:31:55Z</time>
      </trkpt>
      <trkpt lat="46.03098" lon="3.64173">
        <ele>622</ele>
        <time>2021-11-10T08:32:58Z</time>
      </trkpt>
      <trkpt lat="46.03056" lon="3.64296">
        <ele>619</ele>
        <time>2021-11-10T08:35:05Z</time>
      </trkpt>
      <trkpt lat="46.03021" lon="3.64359">
        <ele>619</ele>
        <time>2021-11-10T08:36:19Z</time>
      </trkpt>
      <trkpt lat="46.03003" lon="3.64391">
        <ele>619</ele>
        <time>2021-11-10T08:36:58Z</time>
      </trkpt>
      <trkpt lat="46.02971" lon="3.64411">
        <ele>618</ele>
        <time>2021-11-10T08:37:44Z</time>
      </trkpt>
      <trkpt lat="46.02965" lon="3.64475">
        <ele>620</ele>
        <time>2021-11-10T08:38:44Z</time>
      </trkpt>
      <trkpt lat="46.02916" lon="3.64611">
        <ele>618</ele>
        <time>2021-11-10T08:41:06Z</time>
      </trkpt>
      <trkpt lat="46.02868" lon="3.64662">
        <ele>611</ele>
        <time>2021-11-10T08:42:25Z</time>
      </trkpt>
      <trkpt lat="46.02829" lon="3.64712">
        <ele>603</ele>
        <time>2021-11-10T08:43:35Z</time>
      </trkpt>
      <trkpt lat="46.02751" lon="3.64687">
        <ele>595</ele>
        <time>2021-11-10T08:45:22Z</time>
      </trkpt>
      <trkpt lat="46.02701" lon="3.64684">
        <ele>585</ele>
        <time>2021-11-10T08:46:29Z</time>
      </trkpt>
      <trkpt lat="46.02674" lon="3.64694">
        <ele>579</ele>
        <time>2021-11-10T08:47:06Z</time>
      </trkpt>
      <trkpt lat="46.02644" lon="3.64651">
        <ele>576</ele>
        <time>2021-11-10T08:48:02Z</time>
      </trkpt>
      <trkpt lat="46.02623" lon="3.64636">
        <ele>571</ele>
        <time>2021-11-10T08:48:34Z</time>
      </trkpt>
      <trkpt lat="46.02575" lon="3.64612">
        <ele>560</ele>
        <time>2021-11-10T08:49:41Z</time>
      </trkpt>
      <trkpt lat="46.02547" lon="3.64563">
        <ele>555</ele>
        <time>2021-11-10T08:50:40Z</time>
      </trkpt>
      <trkpt lat="46.02541" lon="3.64708">
        <ele>552</ele>
        <time>2021-11-10T08:52:55Z</time>
      </trkpt>
      <trkpt lat="46.02545" lon="3.64821">
        <ele>552</ele>
        <time>2021-11-10T08:54:40Z</time>
      </trkpt>
      <trkpt lat="46.02535" lon="3.64924">
        <ele>555</ele>
        <time>2021-11-10T08:56:16Z</time>
      </trkpt>
      <trkpt lat="46.02624" lon="3.64988">
        <ele>560</ele>
        <time>2021-11-10T08:58:29Z</time>
      </trkpt>
      <trkpt lat="46.02672" lon="3.65048">
        <ele>562</ele>
        <time>2021-11-10T08:59:53Z</time>
      </trkpt>
      <trkpt lat="46.02721" lon="3.65059">
        <ele>564</ele>
        <time>2021-11-10T09:01:00Z</time>
      </trkpt>
      <trkpt lat="46.02776" lon="3.65057">
        <ele>567</ele>
        <time>2021-11-10T09:02:13Z</time>
      </trkpt>
      <trkpt lat="46.0281" lon="3.65066">
        <ele>570</ele>
        <time>2021-11-10T09:02:59Z</time>
      </trkpt>
      <trkpt lat="46.02906" lon="3.65033">
        <ele>582</ele>
        <time>2021-11-10T09:05:11Z</time>
      </trkpt>
      <trkpt lat="46.02998" lon="3.65038">
        <ele>591</ele>
        <time>2021-11-10T09:07:14Z</time>
      </trkpt>
      <trkpt lat="46.03036" lon="3.65006">
        <ele>599</ele>
        <time>2021-11-10T09:08:13Z</time>
      </trkpt>
      <trkpt lat="46.0309" lon="3.6494">
        <ele>605</ele>
        <time>2021-11-10T09:09:47Z</time>
      </trkpt>
    </trkseg>
  </trk>
</gpx>